Language selection

My Weather Profile Weather Topics  | 

Johnstone Strait: Past 24 Hour Conditions

 

La Perouse Bank - 46206

10:00 PM PDT 01 July 2022Buoy position: 48.83N 126.0W
Disclaimer

This table is a summary of hourly weather conditions for the past 24 hours.
Please note that these observations might not always be representative of weather conditions over their associated marine area.

Date / Time
(PDT)
Wind(knots) Wave height(m) Wave period(s) Pressure(kPa) Air tempC) Water tempC)
01 July 2022
22:00 WNW 7 gust 9 0.9 14.3 101.9 14 14
21:00 WNW 9 gust 10 0.8 15.4 101.9 14 14
20:00 NW 10 gust 11 0.8 15.4 101.9 14 14
19:00 NW 10 gust 12 0.9 15.4 101.9 14 14
18:00 NW 11 gust 14 0.9 15.4 101.9 14 14
17:00 NW 12 gust 13 0.9 6.5 102.0 14 14
16:00 NW 12 gust 14 0.9 5.9 102.0 14 14
15:00 NW 14 gust 16 1.0 15.4 102.0 14 14
14:00 WNW 15 gust 18 1.0 15.4 102.0 14 14
13:00 SSE 6 gust 7 0.8 15.4 102.0 13 14
12:00 SSE 6 gust 7 0.9 15.4 102.0 13 14
11:00 SSE 5 gust 6 0.8 15.4 102.0 13 14
10:00 S 4 gust 5 0.8 14.3 102.0 14 14
9:00 SSE 2 gust 3 0.8 15.4 102.0 14 14
8:00 W 2 gust 3 0.8 15.4 102.0 14 14
7:00 W 4 gust 5 0.8 15.4 102.0 14 14
6:00 WNW 4 gust 5 0.8 15.4 102.0 14 14
5:00 WNW 6 gust 8 0.8 15.4 101.9 14 14
4:00 NW 8 gust 9 0.8 15.4 101.9 14 14
3:00 NW 9 gust 10 0.8 15.4 101.9 14 14
2:00 NW 10 gust 11 0.9 15.4 101.9 14 14
1:00 NW 12 gust 15 0.9 15.4 102.0 14 14
0:00 NNW 13 gust 16 0.9 15.4 101.9 14 14
30 June 2022
23:00 NW 13 gust 16 0.9 15.4 102.0 14 14
22:00 NW 14 gust 17 0.9 15.4 102.0 14 14

Zoom-in to make a selection

Map of Pacific - Georgia Basin marine weather areas Sentry Shoal - 46131 Halibut Bank - 46146 La Perouse Bank - 46206 Georgia Strait - 46303 English Bay - 46304 Discovery Island Esquimalt Harbour Kelp Reefs Malahat Race Rocks Lightstation Saturna Island Sheringham Point University of Victoria Victoria Gonzales Victoria Int'l Airport Ballenas Islands Campbell River Airport Comox Airport Entrance Island Fanny Island Nanaimo Airport Sisters Islets Estevan Point Port Alberni Tofino Airport Grief Point Howe Sound - Pam Rocks Powell River Airport Sechelt Squamish Airport Point Atkinson Sand Heads Lightstation Tsawwassen Ferry Terminal Vancouver Int'l Airport Vancouver Harbour West Vancouver
Legend:
buoy Buoy
land station Land Station

Pacific - Georgia Basin Area

Another Region

What we are doing

Features

WeatherCAN app: set custom notifications

Learn how to set custom Air Quality Health Index notifications on the WeatherCAN app

Date modified: